createdAt,value
2023-04-10T00:01:07.393Z,69.37
2023-04-10T00:04:10.743Z,70.26
2023-04-10T00:07:14.116Z,69.37
2023-04-10T00:10:17.046Z,69.64
2023-04-10T00:13:21.699Z,69.49
2023-04-10T00:16:24.658Z,69.49
2023-04-10T00:19:27.397Z,69.07
2023-04-10T00:22:30.300Z,69.94
2023-04-10T00:25:33.139Z,68.92
2023-04-10T00:28:38.000Z,68.51
2023-04-10T00:31:41.083Z,68.68
2023-04-10T00:34:43.828Z,68.34
2023-04-10T00:37:46.728Z,68.04
2023-04-10T00:40:49.664Z,67.84
2023-04-10T00:43:56.724Z,67.80
2023-04-10T00:46:59.619Z,68.25
2023-04-10T00:50:02.637Z,69.94
2023-04-10T00:53:05.752Z,69.93
2023-04-10T00:56:09.551Z,69.42
2023-04-10T00:59:13.732Z,69.61
2023-04-10T01:02:16.907Z,68.21
2023-04-10T01:05:19.724Z,68.13
2023-04-10T01:08:32.681Z,67.57
2023-04-10T01:11:46.477Z,68.72
2023-04-10T01:15:03.128Z,69.78
2023-04-10T01:18:14.030Z,69.87
2023-04-10T01:21:18.565Z,69.18
2023-04-10T01:24:42.096Z,69.14
2023-04-10T01:27:55.701Z,68.97
2023-04-10T01:31:02.312Z,69.94
2023-04-10T01:34:09.275Z,69.37
2023-04-10T01:37:17.331Z,68.71
2023-04-10T01:40:22.009Z,70.49
2023-04-10T01:43:28.206Z,69.65
2023-04-10T01:46:33.752Z,68.86
2023-04-10T01:49:42.462Z,70.10
2023-04-10T01:52:46.441Z,70.08
2023-04-10T01:55:50.329Z,69.42
2023-04-10T01:58:53.287Z,70.80
2023-04-10T02:01:58.816Z,69.81
2023-04-10T02:05:02.198Z,69.93
2023-04-10T02:08:13.862Z,68.80
2023-04-10T02:11:25.314Z,68.18
2023-04-10T02:14:32.696Z,68.75
2023-04-10T02:17:38.338Z,68.84
2023-04-10T02:20:41.383Z,70.42
2023-04-10T02:23:44.284Z,69.30
2023-04-10T02:26:47.806Z,69.74
2023-04-10T02:29:51.642Z,69.40
2023-04-10T02:32:55.888Z,70.72
2023-04-10T02:35:58.751Z,69.94
2023-04-10T02:39:01.491Z,69.21
2023-04-10T02:42:04.320Z,70.34
2023-04-10T02:45:08.702Z,69.02
2023-04-10T02:48:13.091Z,70.28
2023-04-10T02:51:16.074Z,68.10
2023-04-10T02:54:18.799Z,69.37
2023-04-10T02:57:22.665Z,68.88
2023-04-10T03:00:25.921Z,71.10
2023-04-10T03:03:30.223Z,69.47
2023-04-10T03:06:33.228Z,68.99
2023-04-10T03:09:36.585Z,69.79
2023-04-10T03:12:39.438Z,69.03
2023-04-10T03:15:42.327Z,66.91
2023-04-10T03:18:46.551Z,69.09
2023-04-10T03:21:49.315Z,70.42
2023-04-10T03:24:52.624Z,69.95
2023-04-10T03:27:55.460Z,69.66
2023-04-10T03:30:58.187Z,71.08
2023-04-10T03:34:02.374Z,70.20
2023-04-10T03:37:05.483Z,70.79
2023-04-10T03:40:10.001Z,71.86
2023-04-10T03:43:12.840Z,70.34
2023-04-10T03:46:15.596Z,71.10
2023-04-10T03:49:19.780Z,70.24
2023-04-10T03:52:22.490Z,70.39
2023-04-10T03:55:25.306Z,70.01
2023-04-10T03:58:27.973Z,68.99
2023-04-10T04:01:30.777Z,71.08
2023-04-10T04:04:35.008Z,70.00
2023-04-10T04:07:37.804Z,70.87
2023-04-10T04:10:40.624Z,72.19
2023-04-10T04:13:43.345Z,70.24
2023-04-10T04:16:46.317Z,71.28
2023-04-10T04:19:50.572Z,70.78
2023-04-10T04:22:53.359Z,71.09
2023-04-10T04:25:57.200Z,69.22
2023-04-10T04:29:00.154Z,70.86
2023-04-10T04:32:02.934Z,69.46
2023-04-10T04:35:08.433Z,70.48
2023-04-10T04:38:11.164Z,71.03
2023-04-10T04:41:14.052Z,71.48
2023-04-10T04:44:16.721Z,71.40
2023-04-10T04:47:19.560Z,70.15
2023-04-10T04:50:23.627Z,70.93
2023-04-10T04:53:26.479Z,71.48
2023-04-10T04:56:29.152Z,71.79
2023-04-10T04:59:32.041Z,71.53
2023-04-10T05:02:34.932Z,71.01
2023-04-10T05:05:39.079Z,71.08
2023-04-10T05:08:41.799Z,69.96
2023-04-10T05:11:44.488Z,70.86
2023-04-10T05:14:47.450Z,70.78
2023-04-10T05:17:51.076Z,71.50
2023-04-10T05:20:55.421Z,71.60
2023-04-10T05:23:58.280Z,70.40
2023-04-10T05:27:01.293Z,71.61
2023-04-10T05:30:04.659Z,71.76
2023-04-10T05:33:07.534Z,72.76
2023-04-10T05:36:14.323Z,73.10
2023-04-10T05:39:17.401Z,73.75
2023-04-10T05:42:21.529Z,72.80
2023-04-10T05:45:28.595Z,73.77
2023-04-10T05:48:31.495Z,72.73
2023-04-10T05:51:35.579Z,73.28
2023-04-10T05:54:38.331Z,73.18
2023-04-10T05:57:41.218Z,73.62
2023-04-10T06:00:44.083Z,72.92
2023-04-10T06:03:47.170Z,71.99
2023-04-10T06:06:51.633Z,70.84
2023-04-10T06:09:54.536Z,69.92
2023-04-10T06:12:57.267Z,69.94
2023-04-10T06:16:00.137Z,69.43
2023-04-10T06:19:03.174Z,69.67
2023-04-10T06:22:07.350Z,70.20
2023-04-10T06:25:10.852Z,69.87
2023-04-10T06:28:13.636Z,69.27
2023-04-10T06:31:16.549Z,69.86
2023-04-10T06:34:19.333Z,69.38
2023-04-10T06:37:29.145Z,68.32
2023-04-10T06:40:34.005Z,67.53
2023-04-10T06:43:38.129Z,67.67
2023-04-10T06:46:40.886Z,67.56
2023-04-10T06:49:43.682Z,65.96
2023-04-10T06:52:48.755Z,64.91
2023-04-10T06:55:51.457Z,63.89
2023-04-10T06:58:54.344Z,61.97
2023-04-10T07:01:57.640Z,60.08
2023-04-10T07:05:00.552Z,59.79
2023-04-10T07:08:04.856Z,58.06
2023-04-10T07:11:07.942Z,57.18
2023-04-10T07:14:10.852Z,57.46
2023-04-10T07:17:15.621Z,57.53
2023-04-10T07:20:18.502Z,56.78
2023-04-10T07:23:22.830Z,55.61
2023-04-10T07:26:25.974Z,54.26
2023-04-10T07:29:28.815Z,53.74
2023-04-10T07:32:32.574Z,54.22
2023-04-10T07:35:36.326Z,52.85
2023-04-10T07:38:40.623Z,52.19
2023-04-10T07:41:44.394Z,50.83
2023-04-10T07:44:47.078Z,51.47
2023-04-10T07:47:49.919Z,49.20
2023-04-10T07:50:52.845Z,49.38
2023-04-10T07:53:57.226Z,48.43
2023-04-10T07:56:59.910Z,48.15
2023-04-10T08:00:02.859Z,47.65
2023-04-10T08:03:06.447Z,46.02
2023-04-10T08:06:10.451Z,45.28
2023-04-10T08:09:14.723Z,45.81
2023-04-10T08:12:17.632Z,45.40
2023-04-10T08:15:20.548Z,45.04
2023-04-10T08:18:23.273Z,43.60
2023-04-10T08:21:27.228Z,44.06
2023-04-10T08:24:31.339Z,43.44
2023-04-10T08:27:34.039Z,43.75
2023-04-10T08:30:36.768Z,44.11
2023-04-10T08:33:39.517Z,43.13
2023-04-10T08:36:42.388Z,43.08
2023-04-10T08:39:46.618Z,42.14
2023-04-10T08:42:49.319Z,42.67
2023-04-10T08:45:53.549Z,42.06
2023-04-10T08:49:02.773Z,42.08
2023-04-10T08:52:08.327Z,41.07
2023-04-10T08:55:14.370Z,40.61
2023-04-10T08:58:17.209Z,41.28
2023-04-10T09:01:22.376Z,41.52
2023-04-10T09:04:25.928Z,40.20
2023-04-10T09:07:28.670Z,39.51
2023-04-10T09:10:32.731Z,39.74
2023-04-10T09:13:37.995Z,37.71
2023-04-10T09:16:40.825Z,38.02
2023-04-10T09:19:44.497Z,36.66
2023-04-10T09:22:47.271Z,37.16
2023-04-10T09:25:51.451Z,36.09
2023-04-10T09:28:58.860Z,36.03
2023-04-10T09:32:01.636Z,35.81
2023-04-10T09:35:05.818Z,33.64
2023-04-10T09:38:16.842Z,32.66
2023-04-10T09:41:21.168Z,33.92
2023-04-10T09:44:31.375Z,34.34
2023-04-10T09:47:34.375Z,33.82
2023-04-10T09:50:39.915Z,34.55
2023-04-10T09:53:51.033Z,34.01
2023-04-10T09:56:55.581Z,33.96
2023-04-10T09:59:59.882Z,34.12
2023-04-10T10:03:06.220Z,33.91
2023-04-10T10:06:09.636Z,34.84
2023-04-10T10:09:12.803Z,34.27
2023-04-10T10:12:20.277Z,35.20
2023-04-10T10:15:29.400Z,33.98
2023-04-10T10:18:40.534Z,33.48
2023-04-10T10:21:45.750Z,33.29
2023-04-10T10:24:49.117Z,33.79
2023-04-10T10:27:54.726Z,33.31
2023-04-10T10:30:57.661Z,33.29
2023-04-10T10:34:04.712Z,32.98
2023-04-10T10:37:07.634Z,33.40
2023-04-10T10:40:17.721Z,32.71
2023-04-10T10:43:27.473Z,32.38
2023-04-10T10:46:42.271Z,32.56
2023-04-10T10:49:59.207Z,32.60
2023-04-10T10:53:01.913Z,33.12
2023-04-10T10:56:37.861Z,32.52
2023-04-10T10:59:59.920Z,32.53
2023-04-10T11:03:28.838Z,33.41
2023-04-10T11:06:52.188Z,33.40
2023-04-10T11:09:57.218Z,32.72
2023-04-10T11:13:19.537Z,33.16
2023-04-10T11:16:25.210Z,32.95
2023-04-10T11:19:28.100Z,33.17
2023-04-10T11:22:31.388Z,32.48
2023-04-10T11:25:49.073Z,33.21
2023-04-10T11:28:51.995Z,33.11
2023-04-10T11:31:59.498Z,33.03
2023-04-10T11:35:04.810Z,32.86
2023-04-10T11:38:20.623Z,33.29
2023-04-10T11:41:28.499Z,33.34
2023-04-10T11:44:35.382Z,34.36
2023-04-10T11:47:39.613Z,33.61
2023-04-10T11:50:42.535Z,33.88
2023-04-10T11:53:45.354Z,33.91
2023-04-10T11:56:59.280Z,33.38
2023-04-10T12:00:02.184Z,33.83
2023-04-10T12:03:06.488Z,32.90
2023-04-10T12:06:11.634Z,33.21
2023-04-10T12:09:15.689Z,31.74
2023-04-10T12:12:20.523Z,32.06
2023-04-10T12:15:30.289Z,32.94
2023-04-10T12:18:34.818Z,33.60
2023-04-10T12:21:38.009Z,33.47
2023-04-10T12:24:45.091Z,32.70
2023-04-10T12:27:50.550Z,33.37
2023-04-10T12:30:54.007Z,34.45
2023-04-10T12:33:58.727Z,33.61
2023-04-10T12:37:01.540Z,33.92
2023-04-10T12:40:08.429Z,34.62
2023-04-10T12:43:11.200Z,34.64
2023-04-10T12:46:25.019Z,35.27
2023-04-10T12:49:29.165Z,35.01
2023-04-10T12:52:31.942Z,34.79
2023-04-10T12:55:34.878Z,34.58
2023-04-10T12:58:38.291Z,34.07
2023-04-10T13:01:41.269Z,33.70
2023-04-10T13:04:45.688Z,34.31
2023-04-10T13:07:52.491Z,33.85
2023-04-10T13:10:58.187Z,32.63
2023-04-10T13:14:00.899Z,33.07
2023-04-10T13:17:03.761Z,32.66
2023-04-10T13:20:10.344Z,32.42
2023-04-10T13:23:13.253Z,32.99
2023-04-10T13:26:16.236Z,33.45
2023-04-10T13:29:19.109Z,33.55
2023-04-10T13:32:22.676Z,33.95
2023-04-10T13:35:26.728Z,33.20
2023-04-10T13:38:29.606Z,33.34
2023-04-10T13:41:32.460Z,34.57
2023-04-10T13:44:35.360Z,34.97
2023-04-10T13:47:38.280Z,35.04
2023-04-10T13:50:42.397Z,35.09
2023-04-10T13:53:45.205Z,35.71
2023-04-10T13:56:48.103Z,35.85
2023-04-10T13:59:50.839Z,36.41
2023-04-10T14:02:53.760Z,35.54
2023-04-10T14:05:57.945Z,36.21
2023-04-10T14:09:00.861Z,36.79
2023-04-10T14:12:03.604Z,37.06
2023-04-10T14:15:07.699Z,36.39
2023-04-10T14:18:10.568Z,35.73
2023-04-10T14:21:14.655Z,36.48
2023-04-10T14:24:17.409Z,35.75
2023-04-10T14:27:20.505Z,35.63
2023-04-10T14:30:23.269Z,34.72
2023-04-10T14:33:26.321Z,35.25
2023-04-10T14:36:30.400Z,34.80
2023-04-10T14:39:33.843Z,35.46
2023-04-10T14:42:36.613Z,36.12
2023-04-10T14:45:39.433Z,36.88
2023-04-10T14:48:42.430Z,37.98
2023-04-10T14:51:48.400Z,38.15
2023-04-10T14:54:51.450Z,37.75
2023-04-10T14:57:55.282Z,38.59
2023-04-10T15:00:58.986Z,38.13
2023-04-10T15:04:01.824Z,38.22
2023-04-10T15:07:05.991Z,38.18
2023-04-10T15:10:10.721Z,38.24
2023-04-10T15:13:13.524Z,38.46
2023-04-10T15:16:16.717Z,38.55
2023-04-10T15:19:19.488Z,38.30
2023-04-10T15:22:23.556Z,38.34
2023-04-10T15:25:26.349Z,38.91
2023-04-10T15:28:29.231Z,39.48
2023-04-10T15:31:32.102Z,38.98
2023-04-10T15:34:34.863Z,39.22
2023-04-10T15:37:38.942Z,38.97
2023-04-10T15:40:41.797Z,38.31
2023-04-10T15:43:44.551Z,39.03
2023-04-10T15:46:47.826Z,38.62
2023-04-10T15:49:50.673Z,38.99
2023-04-10T15:52:54.776Z,38.09
2023-04-10T15:55:57.647Z,38.90
2023-04-10T15:59:00.386Z,38.95
2023-04-10T16:02:03.355Z,38.32
2023-04-10T16:05:07.973Z,38.77
2023-04-10T16:08:12.150Z,37.60
2023-04-10T16:11:15.015Z,38.01
2023-04-10T16:14:18.808Z,38.36
2023-04-10T16:17:21.665Z,38.71
2023-04-10T16:20:24.439Z,38.59
2023-04-10T16:23:28.529Z,38.12
2023-04-10T16:26:31.304Z,38.65
2023-04-10T16:29:33.977Z,38.90
2023-04-10T16:32:36.818Z,39.25
2023-04-10T16:35:39.667Z,39.19
2023-04-10T16:38:44.510Z,39.07
2023-04-10T16:41:47.364Z,38.46
2023-04-10T16:44:50.113Z,38.96
2023-04-10T16:47:52.818Z,39.28
2023-04-10T16:50:55.553Z,38.63
2023-04-10T16:53:59.691Z,39.05
2023-04-10T16:57:02.510Z,38.55
2023-04-10T17:00:06.282Z,39.09
2023-04-10T17:03:09.253Z,39.14
2023-04-10T17:06:12.001Z,39.70
2023-04-10T17:09:16.253Z,38.90
2023-04-10T17:12:19.145Z,38.96
2023-04-10T17:15:21.939Z,39.14
2023-04-10T17:18:25.030Z,39.16
2023-04-10T17:21:28.185Z,38.64
2023-04-10T17:24:32.566Z,39.57
2023-04-10T17:27:36.749Z,39.22
2023-04-10T17:30:41.285Z,39.60
2023-04-10T17:33:44.315Z,39.58
2023-04-10T17:36:49.188Z,39.62
2023-04-10T17:39:54.519Z,40.29
2023-04-10T17:42:57.353Z,39.60
2023-04-10T17:46:00.192Z,39.61
2023-04-10T17:49:03.293Z,39.85
2023-04-10T17:52:06.358Z,40.11
2023-04-10T17:55:18.277Z,40.57
2023-04-10T17:58:23.426Z,41.02
2023-04-10T18:01:29.582Z,40.62
2023-04-10T18:04:32.426Z,41.26
2023-04-10T18:07:35.430Z,40.95
2023-04-10T18:10:39.536Z,41.19
2023-04-10T18:13:42.444Z,41.72
2023-04-10T18:16:45.280Z,41.79
2023-04-10T18:19:48.252Z,41.69
2023-04-10T18:22:51.028Z,42.13
2023-04-10T18:25:56.078Z,41.69
2023-04-10T18:28:59.002Z,41.22
2023-04-10T18:32:01.809Z,41.84
2023-04-10T18:35:05.026Z,41.48
2023-04-10T18:38:07.728Z,41.71
2023-04-10T18:41:11.888Z,41.73
2023-04-10T18:44:14.736Z,41.74
2023-04-10T18:47:17.484Z,41.42
2023-04-10T18:50:20.248Z,40.89
2023-04-10T18:53:23.183Z,41.51
2023-04-10T18:56:27.339Z,42.02
2023-04-10T18:59:30.483Z,42.17
2023-04-10T19:02:33.351Z,41.81
2023-04-10T19:05:36.345Z,41.99
2023-04-10T19:08:39.377Z,41.74
2023-04-10T19:11:43.830Z,41.98
2023-04-10T19:14:47.118Z,41.54
2023-04-10T19:17:52.932Z,41.39
2023-04-10T19:20:55.823Z,41.52
2023-04-10T19:24:01.871Z,41.54
2023-04-10T19:27:06.611Z,41.29
2023-04-10T19:30:10.310Z,41.31
2023-04-10T19:33:13.092Z,41.82
2023-04-10T19:36:16.763Z,43.76
2023-04-10T19:39:19.662Z,41.66
2023-04-10T19:42:25.366Z,40.76
2023-04-10T19:45:30.368Z,40.86
2023-04-10T19:48:33.106Z,41.20
2023-04-10T19:51:36.161Z,39.63
2023-04-10T19:54:38.925Z,38.80
2023-04-10T19:57:43.021Z,40.42
2023-04-10T20:00:45.865Z,39.15
2023-04-10T20:03:48.904Z,39.31
2023-04-10T20:06:52.552Z,40.55
2023-04-10T20:09:55.299Z,40.47
2023-04-10T20:12:59.546Z,38.85
2023-04-10T20:16:02.558Z,38.89
2023-04-10T20:19:05.576Z,38.72
2023-04-10T20:22:08.690Z,39.21
2023-04-10T20:25:11.576Z,38.75
2023-04-10T20:28:16.507Z,38.95
2023-04-10T20:31:19.519Z,39.29
2023-04-10T20:34:22.390Z,38.71
2023-04-10T20:37:25.120Z,38.75
2023-04-10T20:40:28.059Z,38.91
2023-04-10T20:43:32.388Z,38.21
2023-04-10T20:46:35.369Z,38.82
2023-04-10T20:49:38.377Z,39.29
2023-04-10T20:52:41.357Z,39.56
2023-04-10T20:55:44.090Z,38.24
2023-04-10T20:58:48.381Z,38.38
2023-04-10T21:01:51.447Z,39.01
2023-04-10T21:04:54.394Z,38.42
2023-04-10T21:07:57.431Z,38.68
2023-04-10T21:11:00.271Z,38.21
2023-04-10T21:14:04.369Z,39.16
2023-04-10T21:17:07.122Z,38.91
2023-04-10T21:20:10.546Z,38.75
2023-04-10T21:23:13.243Z,39.32
2023-04-10T21:26:16.141Z,39.43
2023-04-10T21:29:20.190Z,39.32
2023-04-10T21:32:23.296Z,39.02
2023-04-10T21:35:27.247Z,39.37
2023-04-10T21:38:33.744Z,39.02
2023-04-10T21:41:36.805Z,38.79
2023-04-10T21:44:40.900Z,39.39
2023-04-10T21:47:43.779Z,39.04
2023-04-10T21:50:46.608Z,39.38
2023-04-10T21:53:49.347Z,40.06
2023-04-10T21:56:52.275Z,40.43
2023-04-10T21:59:56.320Z,39.42
2023-04-10T22:02:59.520Z,39.81
2023-04-10T22:06:02.419Z,39.77
2023-04-10T22:09:05.303Z,40.05
2023-04-10T22:12:08.414Z,40.12
2023-04-10T22:15:13.074Z,40.37
2023-04-10T22:18:15.806Z,40.30
2023-04-10T22:21:18.523Z,40.70
2023-04-10T22:24:21.420Z,39.87
2023-04-10T22:27:24.721Z,40.14
2023-04-10T22:30:28.980Z,40.35
2023-04-10T22:33:33.277Z,40.23
2023-04-10T22:36:36.236Z,40.15
2023-04-10T22:39:38.946Z,40.46
2023-04-10T22:42:42.719Z,40.66
2023-04-10T22:45:46.783Z,41.38
2023-04-10T22:48:49.538Z,40.53
2023-04-10T22:51:52.500Z,40.77
2023-04-10T22:54:55.192Z,41.11
2023-04-10T22:57:58.017Z,40.95
2023-04-10T23:01:02.277Z,41.52
2023-04-10T23:04:05.312Z,41.92
2023-04-10T23:07:08.167Z,42.42
2023-04-10T23:10:11.255Z,42.36
2023-04-10T23:13:14.110Z,41.98
2023-04-10T23:16:18.483Z,41.88
2023-04-10T23:19:21.250Z,42.02
2023-04-10T23:22:24.208Z,42.40
2023-04-10T23:25:26.978Z,42.00
2023-04-10T23:28:29.841Z,42.50
2023-04-10T23:31:33.962Z,42.37
2023-04-10T23:34:36.958Z,42.95
2023-04-10T23:37:39.789Z,42.18
2023-04-10T23:40:42.502Z,41.96
2023-04-10T23:43:45.886Z,42.57
2023-04-10T23:46:50.832Z,42.62
2023-04-10T23:49:53.723Z,42.12
2023-04-10T23:52:56.517Z,42.95
2023-04-10T23:55:59.337Z,42.64
2023-04-10T23:59:02.058Z,42.67
